createdAt,value
2022-07-25T14:55:47.187Z,34.82
2022-07-25T14:56:47.104Z,34.70
2022-07-25T14:57:47.111Z,34.79
2022-07-25T14:58:47.090Z,34.90
2022-07-25T14:59:47.057Z,34.98
2022-07-25T15:00:47.156Z,35.16
2022-07-25T15:01:47.055Z,35.34
2022-07-25T15:02:47.094Z,35.46
2022-07-25T15:03:47.058Z,35.54
2022-07-25T15:04:47.137Z,35.65
2022-07-25T15:05:47.028Z,35.72
2022-07-25T15:06:46.999Z,35.57
2022-07-25T15:07:47.010Z,35.48
2022-07-25T15:08:47.003Z,35.44
2022-07-25T15:09:55.863Z,35.38
2022-07-25T15:10:54.594Z,35.14
2022-07-25T15:11:54.730Z,35.07
2022-07-25T15:13:20.570Z,35.02
2022-07-25T15:13:47.937Z,35.07
2022-07-25T15:14:46.959Z,34.97
2022-07-25T15:15:46.945Z,34.86
2022-07-25T15:16:46.961Z,34.85
2022-07-25T15:17:46.985Z,34.95
2022-07-25T15:19:14.658Z,34.83
2022-07-25T15:19:47.875Z,34.94
2022-07-25T15:20:46.854Z,34.99
2022-07-25T15:21:46.844Z,35.13
2022-07-25T15:22:46.829Z,35.19
2022-07-25T15:23:46.820Z,35.28
2022-07-25T15:25:17.882Z,35.39
2022-07-25T15:26:04.076Z,35.61
2022-07-25T15:26:47.784Z,35.60
2022-07-25T15:27:46.782Z,35.60
2022-07-25T15:28:46.783Z,35.85
2022-07-25T15:29:46.759Z,35.88
2022-07-25T15:30:46.763Z,36.14
2022-07-25T15:31:46.817Z,36.26
2022-07-25T15:32:46.734Z,36.48
2022-07-25T15:33:46.721Z,36.69
2022-07-25T15:34:46.717Z,36.88
2022-07-25T15:35:46.697Z,36.79
2022-07-25T15:36:46.687Z,36.67
2022-07-25T15:37:46.696Z,36.49
2022-07-25T15:38:46.673Z,36.60
2022-07-25T15:39:46.664Z,36.51
2022-07-25T15:40:46.663Z,36.33
2022-07-25T15:41:46.644Z,36.27
2022-07-25T15:42:46.634Z,36.30
2022-07-25T15:43:46.622Z,36.11
2022-07-25T15:44:46.608Z,36.11
2022-07-25T15:45:46.598Z,36.03
2022-07-25T15:46:46.708Z,35.98
2022-07-25T15:47:50.849Z,35.87
2022-07-25T15:48:46.627Z,35.76
2022-07-25T15:49:46.559Z,35.72
2022-07-25T15:50:46.550Z,35.63
2022-07-25T15:51:46.550Z,35.39
2022-07-25T15:52:46.567Z,35.12
2022-07-25T15:53:46.518Z,35.02
2022-07-25T15:54:46.505Z,34.94
2022-07-25T15:55:46.497Z,34.83
2022-07-25T15:56:46.493Z,34.66
2022-07-25T15:57:46.490Z,34.55
2022-07-25T15:58:46.511Z,34.44
2022-07-25T15:59:46.463Z,34.20
2022-07-25T16:00:46.563Z,34.13
2022-07-25T16:01:46.441Z,34.00
2022-07-25T16:02:46.431Z,33.89
2022-07-25T16:03:46.478Z,33.84
2022-07-25T16:04:46.438Z,33.74
2022-07-25T16:05:46.406Z,33.60
2022-07-25T16:06:46.396Z,33.67
2022-07-25T16:07:46.380Z,33.44
2022-07-25T16:08:46.373Z,33.41
2022-07-25T16:09:46.386Z,33.35
2022-07-25T16:10:46.351Z,33.29
2022-07-25T16:11:46.333Z,33.13
2022-07-25T16:12:46.329Z,33.17
2022-07-25T16:13:46.317Z,33.14
2022-07-25T16:14:46.313Z,33.04
2022-07-25T16:15:46.410Z,32.99
2022-07-25T16:16:46.360Z,32.91
2022-07-25T16:17:46.280Z,32.91
2022-07-25T16:18:46.265Z,32.79
2022-07-25T16:19:46.272Z,32.68
2022-07-25T16:20:46.261Z,32.60
2022-07-25T16:21:46.242Z,32.48
2022-07-25T16:22:46.236Z,32.53
2022-07-25T16:23:46.216Z,32.54
2022-07-25T16:24:46.204Z,32.43
2022-07-25T16:25:46.210Z,32.21
2022-07-25T16:26:46.181Z,31.84
2022-07-25T16:27:46.170Z,31.49
2022-07-25T16:28:46.169Z,31.29
2022-07-25T16:29:46.193Z,31.04
2022-07-25T16:30:46.147Z,30.56
2022-07-25T16:31:46.485Z,29.91
2022-07-25T16:32:46.127Z,28.68
2022-07-25T16:33:47.288Z,27.78
2022-07-25T16:34:46.503Z,27.22
2022-07-25T16:35:46.303Z,26.97
2022-07-25T16:36:47.780Z,26.63
2022-07-25T16:37:46.085Z,26.28
2022-07-25T16:38:46.064Z,26.07
2022-07-25T16:39:46.875Z,25.81
2022-07-25T16:40:47.283Z,25.45
2022-07-25T16:41:48.237Z,25.45
2022-07-25T16:42:46.172Z,25.64
2022-07-25T16:43:46.365Z,25.78
2022-07-25T16:44:46.923Z,25.89
2022-07-25T16:45:46.013Z,25.83
2022-07-25T16:46:46.055Z,26.00
2022-07-25T16:47:46.910Z,25.95
2022-07-25T16:48:48.195Z,26.16
2022-07-25T16:49:46.058Z,26.24
2022-07-25T16:50:49.649Z,26.46
2022-07-25T16:51:54.525Z,26.56
2022-07-25T16:52:49.428Z,26.42
2022-07-25T16:53:50.329Z,26.51
2022-07-25T16:54:48.620Z,26.53
2022-07-25T16:56:50.265Z,26.67
2022-07-25T16:57:47.115Z,26.79
2022-07-25T16:58:48.751Z,26.88
2022-07-25T16:59:46.941Z,26.65
2022-07-25T17:00:45.956Z,26.57
2022-07-25T17:01:45.844Z,26.43
2022-07-25T17:02:46.403Z,26.53
2022-07-25T17:03:45.810Z,26.68
2022-07-25T17:04:45.837Z,26.76
2022-07-25T17:05:45.868Z,26.82
2022-07-25T17:06:46.046Z,27.10
2022-07-25T17:07:45.791Z,27.15
2022-07-25T17:08:45.949Z,27.16
2022-07-25T17:09:45.789Z,27.31
2022-07-25T17:10:45.904Z,27.44
2022-07-25T17:11:47.243Z,27.45
2022-07-25T17:12:45.718Z,27.49
2022-07-25T17:13:46.194Z,27.64
2022-07-25T17:14:46.392Z,27.60
2022-07-25T17:15:45.776Z,27.79
2022-07-25T17:16:45.661Z,27.83
2022-07-25T17:17:45.651Z,27.80
2022-07-25T17:18:45.648Z,27.61
2022-07-25T17:19:46.639Z,27.61
2022-07-25T17:20:48.035Z,27.37
2022-07-25T17:21:45.675Z,27.35
2022-07-25T17:22:49.286Z,27.25
2022-07-25T17:23:45.727Z,27.22
2022-07-25T17:24:46.287Z,27.37
2022-07-25T17:25:50.267Z,27.50
2022-07-25T17:26:47.812Z,27.25
2022-07-25T17:27:45.567Z,27.20
2022-07-25T17:28:45.539Z,27.08
2022-07-25T17:29:45.528Z,27.01
2022-07-25T17:30:46.924Z,26.85
2022-07-25T17:31:45.590Z,26.82
2022-07-25T17:32:45.565Z,26.83
2022-07-25T17:33:45.487Z,26.68
2022-07-25T17:34:45.832Z,26.73
2022-07-25T17:35:45.465Z,26.67
2022-07-25T17:36:45.469Z,26.63
2022-07-25T17:37:45.446Z,26.58
2022-07-25T17:38:45.431Z,26.49
2022-07-25T17:39:45.435Z,26.45
2022-07-25T17:40:45.881Z,26.49
2022-07-25T17:41:45.485Z,26.46
2022-07-25T17:42:45.720Z,26.49
2022-07-25T17:43:45.389Z,26.56
2022-07-25T17:44:45.487Z,26.52
2022-07-25T17:45:45.496Z,26.56
2022-07-25T17:46:45.444Z,26.85
2022-07-25T17:47:48.913Z,27.22
2022-07-25T17:48:47.754Z,27.32
2022-07-25T17:49:45.338Z,27.47
2022-07-25T17:50:45.318Z,27.60
2022-07-25T17:51:46.315Z,27.69
2022-07-25T17:52:45.294Z,27.98
2022-07-25T17:53:45.289Z,28.13
2022-07-25T17:54:48.018Z,28.24
2022-07-25T17:55:45.269Z,28.13
2022-07-25T17:56:45.256Z,28.09
2022-07-25T17:57:45.244Z,27.90
2022-07-25T17:58:45.262Z,27.78
2022-07-25T17:59:45.223Z,27.94
2022-07-25T18:00:45.200Z,27.91
2022-07-25T18:01:45.283Z,27.78
2022-07-25T18:02:45.241Z,27.47
2022-07-25T18:03:45.182Z,27.31
2022-07-25T18:04:45.177Z,27.23
2022-07-25T18:05:45.144Z,27.04
2022-07-25T18:06:45.222Z,26.89
2022-07-25T18:07:46.205Z,26.73
2022-07-25T18:08:45.122Z,26.60
2022-07-25T18:09:45.179Z,26.48
2022-07-25T18:10:45.092Z,26.41
2022-07-25T18:11:45.793Z,26.33
2022-07-25T18:12:45.085Z,26.24
2022-07-25T18:13:45.338Z,26.19
2022-07-25T18:14:45.069Z,26.23
2022-07-25T18:15:45.183Z,26.15
2022-07-25T18:16:54.019Z,26.19
2022-07-25T18:18:55.789Z,26.00
2022-07-25T18:19:55.375Z,26.05
2022-07-25T18:20:55.401Z,25.96
2022-07-25T18:21:55.436Z,25.95
2022-07-25T18:22:55.349Z,25.98
2022-07-25T18:23:55.307Z,25.96
2022-07-25T18:24:55.335Z,25.93
2022-07-25T18:25:55.293Z,25.95
2022-07-25T18:26:55.635Z,25.89
2022-07-25T18:27:55.286Z,25.86
2022-07-25T18:28:55.770Z,25.88
2022-07-25T18:29:55.259Z,25.82
2022-07-25T18:30:55.310Z,25.86
2022-07-25T18:31:55.237Z,25.83
2022-07-25T18:32:55.386Z,25.73
2022-07-25T18:33:55.225Z,25.75
2022-07-25T18:35:00.153Z,25.78
2022-07-25T18:35:58.228Z,25.77
2022-07-25T18:36:55.186Z,25.67
2022-07-25T18:37:55.171Z,25.66
2022-07-25T18:38:55.169Z,25.64
2022-07-25T18:39:55.278Z,25.68
2022-07-25T18:41:12.563Z,25.66
2022-07-25T18:41:56.196Z,25.68
2022-07-25T18:42:55.182Z,25.68
2022-07-25T18:43:59.433Z,25.71
2022-07-25T18:44:56.152Z,25.67
2022-07-25T18:45:55.234Z,25.63
2022-07-25T18:46:55.947Z,25.64
2022-07-25T18:47:57.024Z,25.58
2022-07-25T18:48:55.138Z,25.63
2022-07-25T18:49:55.987Z,25.59
2022-07-25T18:50:55.247Z,25.56
2022-07-25T18:51:58.790Z,25.61
2022-07-25T18:52:55.057Z,25.61
2022-07-25T18:53:55.024Z,25.51
2022-07-25T18:54:56.850Z,25.53
2022-07-25T18:55:59.659Z,25.55
2022-07-25T18:56:56.944Z,25.63
2022-07-25T18:57:56.447Z,25.64
2022-07-25T18:58:57.843Z,25.56
2022-07-25T18:59:58.303Z,25.61
2022-07-25T19:00:55.933Z,25.55
2022-07-25T19:01:56.509Z,25.56
2022-07-25T19:02:56.374Z,25.52
2022-07-25T19:03:58.881Z,25.49
2022-07-25T19:04:58.973Z,25.43
2022-07-25T19:06:01.234Z,25.45
2022-07-25T19:06:59.582Z,25.36
2022-07-25T19:07:57.722Z,25.38
2022-07-25T19:08:54.850Z,25.31
2022-07-25T19:09:56.970Z,25.31
2022-07-25T19:10:57.444Z,25.22
2022-07-25T19:12:00.027Z,25.22
2022-07-25T19:13:56.619Z,25.14
2022-07-25T19:14:57.973Z,25.09
2022-07-25T19:15:54.920Z,25.14
2022-07-25T19:16:56.715Z,25.15
2022-07-25T19:17:56.856Z,25.09
2022-07-25T19:18:57.162Z,25.14
2022-07-25T19:19:56.714Z,25.08
2022-07-25T19:20:57.955Z,25.04
2022-07-25T19:21:55.429Z,25.11
2022-07-25T19:22:54.836Z,24.97
2022-07-25T19:23:56.960Z,24.96
2022-07-25T19:24:54.675Z,24.99
2022-07-25T19:25:57.206Z,24.86
2022-07-25T19:26:54.697Z,24.74
2022-07-25T19:27:54.661Z,24.93
2022-07-25T19:28:54.635Z,24.93
2022-07-25T19:29:54.617Z,25.06
2022-07-25T19:30:54.615Z,25.11
2022-07-25T19:31:54.610Z,25.09
2022-07-25T19:32:54.593Z,25.09
2022-07-25T19:33:54.579Z,24.97
2022-07-25T19:34:54.579Z,24.89
2022-07-25T19:35:54.556Z,24.99
2022-07-25T19:36:54.545Z,24.91
2022-07-25T19:37:54.535Z,24.90
2022-07-25T19:38:54.539Z,24.81
2022-07-25T19:39:55.454Z,24.86
2022-07-25T19:40:54.500Z,24.81
2022-07-25T19:41:54.489Z,24.85
2022-07-25T19:42:54.476Z,24.86
2022-07-25T19:43:54.513Z,24.91
2022-07-25T19:44:54.464Z,24.89
2022-07-25T19:45:54.580Z,24.79
2022-07-25T19:46:54.450Z,24.86
2022-07-25T19:47:54.428Z,24.79
2022-07-25T19:48:54.440Z,24.68
2022-07-25T19:49:54.969Z,24.68
2022-07-25T19:51:09.298Z,24.76
2022-07-25T19:51:55.396Z,24.65
2022-07-25T19:52:54.551Z,24.62
2022-07-25T19:53:54.361Z,24.58
2022-07-25T19:54:54.350Z,24.52
2022-07-25T19:55:54.371Z,24.63
2022-07-25T19:56:54.348Z,24.48
2022-07-25T19:57:54.316Z,24.41
2022-07-25T19:58:54.320Z,24.45
2022-07-25T19:59:54.328Z,24.36
2022-07-25T20:00:54.290Z,24.36
2022-07-25T20:01:54.358Z,24.41
2022-07-25T20:02:54.381Z,24.40
2022-07-25T20:03:54.269Z,24.34
2022-07-25T20:04:58.591Z,24.37
2022-07-25T20:06:18.014Z,24.36
2022-07-25T20:06:55.998Z,24.29
2022-07-25T20:08:00.091Z,24.22
2022-07-25T20:08:54.219Z,24.08
2022-07-25T20:09:54.198Z,24.08
2022-07-25T20:10:54.186Z,24.07
2022-07-25T20:11:54.189Z,24.10
2022-07-25T20:12:56.936Z,24.03
2022-07-25T20:13:55.162Z,24.08
2022-07-25T20:14:54.163Z,23.97
2022-07-25T20:15:54.150Z,23.92
2022-07-25T20:16:54.159Z,23.85
2022-07-25T20:17:54.114Z,23.82
2022-07-25T20:18:54.108Z,23.73
2022-07-25T20:19:54.099Z,23.63
2022-07-25T20:20:54.087Z,23.61
2022-07-25T20:21:54.090Z,23.54
2022-07-25T20:22:54.069Z,23.51
2022-07-25T20:23:54.058Z,23.48
2022-07-25T20:24:54.040Z,23.49
2022-07-25T20:25:54.051Z,23.37
2022-07-25T20:26:54.018Z,23.36
2022-07-25T20:27:54.018Z,23.29
2022-07-25T20:28:53.989Z,23.25
2022-07-25T20:29:53.979Z,23.22
2022-07-25T20:30:54.094Z,23.22
2022-07-25T20:31:53.977Z,23.22
2022-07-25T20:32:53.965Z,23.28
2022-07-25T20:33:53.950Z,23.26
2022-07-25T20:34:53.930Z,23.29
2022-07-25T20:35:53.922Z,23.21
2022-07-25T20:36:53.904Z,23.11
2022-07-25T20:37:53.903Z,23.13
2022-07-25T20:38:53.897Z,23.15
2022-07-25T20:39:53.876Z,23.11
2022-07-25T20:40:53.867Z,23.17
2022-07-25T20:41:53.846Z,23.15
2022-07-25T20:42:53.852Z,23.07
2022-07-25T20:43:53.843Z,23.14
2022-07-25T20:44:53.831Z,23.14
2022-07-25T20:45:53.901Z,23.11
2022-07-25T20:46:53.793Z,23.04
2022-07-25T20:47:53.785Z,23.01
2022-07-25T20:48:53.798Z,22.99
2022-07-25T20:49:53.796Z,22.93
2022-07-25T20:50:53.774Z,22.95
2022-07-25T20:51:54.708Z,22.98
2022-07-25T20:52:53.737Z,23.01
2022-07-25T20:53:53.821Z,22.99
2022-07-25T20:54:53.703Z,22.95
2022-07-25T20:55:53.708Z,22.92
2022-07-25T20:56:53.699Z,22.93
2022-07-25T20:57:53.694Z,22.89
2022-07-25T20:58:53.671Z,22.91
2022-07-25T20:59:53.656Z,22.88
2022-07-25T21:00:53.693Z,22.81
2022-07-25T21:01:53.704Z,22.86
2022-07-25T21:02:53.687Z,22.89
2022-07-25T21:03:53.613Z,22.85
2022-07-25T21:04:53.606Z,22.83
2022-07-25T21:05:53.593Z,22.81
2022-07-25T21:06:53.580Z,22.78
2022-07-25T21:07:53.596Z,22.77
2022-07-25T21:08:53.560Z,22.81
2022-07-25T21:09:53.556Z,22.74
2022-07-25T21:10:53.534Z,22.71
2022-07-25T21:11:53.523Z,22.67
2022-07-25T21:12:53.537Z,22.68
2022-07-25T21:13:53.517Z,22.70
2022-07-25T21:14:53.494Z,22.67
2022-07-25T21:15:53.488Z,22.61
2022-07-25T21:16:53.574Z,22.61
2022-07-25T21:17:53.466Z,22.61
2022-07-25T21:18:53.466Z,22.58
2022-07-25T21:19:53.471Z,22.64
2022-07-25T21:20:53.436Z,22.61
2022-07-25T21:21:53.433Z,22.55
2022-07-25T21:22:53.410Z,22.53
2022-07-25T21:23:53.403Z,22.46
2022-07-25T21:24:53.390Z,22.51
2022-07-25T21:25:53.397Z,22.59
2022-07-25T21:26:53.388Z,22.55
2022-07-25T21:27:53.358Z,22.53
2022-07-25T21:28:53.354Z,22.49
2022-07-25T21:29:53.345Z,22.48
2022-07-25T21:30:53.331Z,22.48
2022-07-25T21:31:54.356Z,22.51
2022-07-25T21:32:53.327Z,22.46
2022-07-25T21:33:53.298Z,22.51
2022-07-25T21:34:53.285Z,22.53
2022-07-25T21:35:53.940Z,22.53
2022-07-25T21:36:53.288Z,22.44
2022-07-25T21:37:53.281Z,22.48
2022-07-25T21:38:53.252Z,22.48
2022-07-25T21:39:53.237Z,22.38
2022-07-25T21:40:53.228Z,22.33
2022-07-25T21:41:54.933Z,22.25
2022-07-25T21:42:53.211Z,22.13
2022-07-25T21:43:53.222Z,21.93
2022-07-25T21:44:53.189Z,21.94
2022-07-25T21:45:53.256Z,21.63
2022-07-25T21:46:53.165Z,21.63
2022-07-25T21:47:53.166Z,21.55
2022-07-25T21:48:53.186Z,21.43
2022-07-25T21:49:53.155Z,21.34
2022-07-25T21:50:53.117Z,21.35
2022-07-25T21:51:53.111Z,21.38
2022-07-25T21:52:53.094Z,21.26
2022-07-25T21:53:53.103Z,21.32
2022-07-25T21:54:53.091Z,21.40
2022-07-25T21:55:53.091Z,21.29
2022-07-25T21:56:53.056Z,21.47
2022-07-25T21:57:53.059Z,21.37
2022-07-25T21:58:53.030Z,21.30
2022-07-25T21:59:53.050Z,21.32
2022-07-25T22:00:53.091Z,21.43
2022-07-25T22:01:53.021Z,21.37
2022-07-25T22:02:52.988Z,21.37
2022-07-25T22:03:53.034Z,21.35
2022-07-25T22:04:52.966Z,21.40
2022-07-25T22:05:52.967Z,21.35
2022-07-25T22:06:52.946Z,21.43
2022-07-25T22:07:52.944Z,21.38
2022-07-25T22:08:52.944Z,21.37
2022-07-25T22:09:52.913Z,21.37
2022-07-25T22:10:52.926Z,21.29
2022-07-25T22:11:52.904Z,21.34
2022-07-25T22:12:52.880Z,21.32
2022-07-25T22:13:52.879Z,21.28
2022-07-25T22:14:52.863Z,21.29
2022-07-25T22:15:52.858Z,21.37
2022-07-25T22:16:52.922Z,21.34
2022-07-25T22:17:52.831Z,21.26
2022-07-25T22:18:52.835Z,21.28
2022-07-25T22:19:52.821Z,21.23
2022-07-25T22:20:52.804Z,21.29
2022-07-25T22:21:52.811Z,21.26
2022-07-25T22:22:52.773Z,21.18
2022-07-25T22:23:52.760Z,21.34
2022-07-25T22:24:52.761Z,21.23
2022-07-25T22:25:52.765Z,21.23
2022-07-25T22:26:52.741Z,21.30
2022-07-25T22:27:52.744Z,21.23
2022-07-25T22:28:52.720Z,21.32
2022-07-25T22:29:52.713Z,21.23
2022-07-25T22:30:52.695Z,21.28
2022-07-25T22:31:52.785Z,21.22
2022-07-25T22:32:52.683Z,21.32
2022-07-25T22:34:00.307Z,21.28
2022-07-25T22:36:03.029Z,21.25
2022-07-25T22:37:02.981Z,21.30
2022-07-25T22:38:03.017Z,21.23
2022-07-25T22:39:02.974Z,21.18
2022-07-25T22:40:03.024Z,21.22
2022-07-25T22:41:02.928Z,21.22
2022-07-25T22:42:02.911Z,21.20
2022-07-25T22:43:02.910Z,21.20
2022-07-25T22:44:02.883Z,21.11
2022-07-25T22:45:02.865Z,21.22
2022-07-25T22:46:02.953Z,21.14
2022-07-25T22:47:02.851Z,21.18
2022-07-25T22:48:02.830Z,21.20
2022-07-25T22:49:02.864Z,21.18
2022-07-25T22:50:02.820Z,21.18
2022-07-25T22:51:02.818Z,21.18
2022-07-25T22:52:02.790Z,21.16
2022-07-25T22:53:02.778Z,21.10
2022-07-25T22:54:02.776Z,21.14
2022-07-25T22:55:02.792Z,21.14
2022-07-25T22:56:02.750Z,21.19
2022-07-25T22:57:02.758Z,21.16
2022-07-25T22:58:02.734Z,21.19
2022-07-25T22:59:02.717Z,21.04
2022-07-25T23:00:02.718Z,21.00
2022-07-25T23:01:02.704Z,21.04
2022-07-25T23:02:02.689Z,21.05
2022-07-25T23:03:02.745Z,20.98
2022-07-25T23:04:02.791Z,20.92
2022-07-25T23:05:02.658Z,20.86
2022-07-25T23:06:02.662Z,20.86
2022-07-25T23:07:02.641Z,20.83
2022-07-25T23:08:02.642Z,20.82
2022-07-25T23:09:02.620Z,20.83
2022-07-25T23:10:02.604Z,20.73
2022-07-25T23:11:02.593Z,20.74
2022-07-25T23:12:02.592Z,20.68
2022-07-25T23:13:02.573Z,20.67
2022-07-25T23:14:02.558Z,20.58
2022-07-25T23:15:02.755Z,20.52
2022-07-25T23:16:03.381Z,20.41
2022-07-25T23:17:02.662Z,20.34
2022-07-25T23:18:02.519Z,20.42
2022-07-25T23:19:02.520Z,20.37
2022-07-25T23:20:02.543Z,20.30
2022-07-25T23:21:11.285Z,20.30
2022-07-25T23:23:12.948Z,20.30
2022-07-25T23:24:12.905Z,20.32
2022-07-25T23:25:13.053Z,20.27
2022-07-25T23:26:13.072Z,20.27
2022-07-25T23:27:12.932Z,20.27
2022-07-25T23:28:12.753Z,20.30
2022-07-25T23:29:12.743Z,20.23
2022-07-25T23:30:12.745Z,20.18
2022-07-25T23:31:12.758Z,20.15
2022-07-25T23:32:12.714Z,20.17
2022-07-25T23:33:12.703Z,20.12
2022-07-25T23:34:12.679Z,20.14
2022-07-25T23:35:12.678Z,20.12
2022-07-25T23:36:12.668Z,20.08
2022-07-25T23:37:12.662Z,20.09
2022-07-25T23:38:12.652Z,20.11
2022-07-25T23:39:14.881Z,20.05
2022-07-25T23:40:12.626Z,20.07
2022-07-25T23:41:12.616Z,20.04
2022-07-25T23:42:12.601Z,20.11
2022-07-25T23:43:12.622Z,20.11
2022-07-25T23:44:12.592Z,20.04
2022-07-25T23:45:12.578Z,19.99
2022-07-25T23:46:12.565Z,20.00
2022-07-25T23:47:12.604Z,19.96
2022-07-25T23:48:12.536Z,19.97
2022-07-25T23:49:13.126Z,19.93
2022-07-25T23:50:12.534Z,19.97
2022-07-25T23:51:12.511Z,20.02
2022-07-25T23:52:12.497Z,19.87
2022-07-25T23:53:12.482Z,20.04
2022-07-25T23:54:12.487Z,20.05
2022-07-25T23:55:12.462Z,19.94
2022-07-25T23:56:15.072Z,19.92
2022-07-25T23:57:12.447Z,19.94
2022-07-25T23:58:12.449Z,19.96
2022-07-25T23:59:12.449Z,19.94
